createdAt,value
2018-11-07T00:01:02.154Z,42.63
2018-11-07T00:03:30.836Z,41.70
2018-11-07T00:05:59.398Z,39.13
2018-11-07T00:08:28.048Z,41.50
2018-11-07T00:10:56.644Z,36.37
2018-11-07T00:13:25.395Z,36.53
2018-11-07T00:18:57.280Z,36.83
2018-11-07T00:21:28.160Z,34.63
2018-11-07T00:23:57.942Z,35.13
2018-11-07T00:26:28.261Z,39.40
2018-11-07T00:28:57.634Z,37.50
2018-11-07T00:34:23.313Z,34.70
2018-11-07T00:39:55.600Z,39.70
2018-11-07T00:43:07.118Z,35.70
2018-11-07T00:46:03.517Z,40.00
2018-11-07T00:51:47.954Z,37.47
2018-11-07T00:54:32.396Z,35.23
2018-11-07T00:58:04.205Z,34.93
2018-11-07T01:01:05.591Z,31.37
2018-11-07T01:09:38.307Z,32.33
2018-11-07T01:12:09.044Z,30.50
2018-11-07T01:14:38.741Z,32.90
2018-11-07T01:17:08.121Z,35.63
2018-11-07T01:19:37.767Z,31.87
2018-11-07T01:22:07.336Z,30.53
2018-11-07T01:27:33.803Z,30.70
2018-11-07T01:30:16.700Z,31.93
2018-11-07T01:32:52.966Z,27.40
2018-11-07T01:35:23.082Z,34.63
2018-11-07T01:37:52.513Z,28.60
2018-11-07T01:40:21.846Z,33.50
2018-11-07T01:42:50.839Z,32.33
2018-11-07T01:45:20.188Z,28.27
2018-11-07T01:47:49.376Z,27.93
2018-11-07T01:50:18.405Z,28.33
2018-11-07T01:52:47.453Z,27.20
2018-11-07T01:55:16.735Z,30.27
2018-11-07T01:57:46.034Z,30.10
2018-11-07T02:00:15.452Z,27.83
2018-11-07T02:02:45.051Z,28.60
2018-11-07T02:05:14.489Z,25.77
2018-11-07T02:07:44.407Z,24.70
2018-11-07T02:10:13.811Z,28.90
2018-11-07T02:12:44.930Z,25.10
2018-11-07T02:15:14.224Z,24.20
2018-11-07T02:17:44.267Z,26.20
2018-11-07T02:20:13.328Z,26.20
2018-11-07T02:22:42.627Z,25.80
2018-11-07T02:25:11.680Z,24.67
2018-11-07T02:27:41.387Z,24.47
2018-11-07T02:30:15.326Z,25.07
2018-11-07T02:32:45.024Z,26.33
2018-11-07T02:35:14.297Z,23.10
2018-11-07T02:37:49.615Z,25.33
2018-11-07T02:40:18.835Z,25.13
2018-11-07T02:42:48.195Z,25.00
2018-11-07T02:45:17.658Z,27.40
2018-11-07T02:47:46.729Z,27.37
2018-11-07T02:52:55.290Z,25.00
2018-11-07T02:55:23.805Z,28.30
2018-11-07T02:57:52.325Z,25.07
2018-11-07T03:00:20.863Z,28.97
2018-11-07T03:02:49.343Z,27.37
2018-11-07T03:05:17.924Z,25.80
2018-11-07T03:07:46.432Z,27.63
2018-11-07T03:10:14.958Z,27.53
2018-11-07T03:12:43.428Z,21.90
2018-11-07T03:15:11.966Z,22.97
2018-11-07T03:17:40.459Z,24.30
2018-11-07T03:20:10.857Z,25.33
2018-11-07T03:22:39.270Z,22.43
2018-11-07T03:25:07.763Z,22.90
2018-11-07T03:27:37.222Z,22.13
2018-11-07T03:30:06.706Z,19.13
2018-11-07T03:32:35.122Z,21.27
2018-11-07T03:35:03.698Z,25.30
2018-11-07T03:37:32.134Z,22.07
2018-11-07T03:40:00.615Z,19.67
2018-11-07T03:42:29.071Z,20.20
2018-11-07T03:44:57.553Z,19.67
2018-11-07T03:47:26.090Z,21.63
2018-11-07T03:49:54.546Z,24.23
2018-11-07T03:52:22.993Z,22.90
2018-11-07T03:54:51.427Z,21.87
2018-11-07T03:57:19.885Z,23.30
2018-11-07T03:59:48.248Z,25.10
2018-11-07T04:02:16.659Z,20.40
2018-11-07T04:04:45.120Z,28.10
2018-11-07T04:07:13.522Z,22.57
2018-11-07T04:09:41.943Z,22.37
2018-11-07T04:12:10.518Z,21.00
2018-11-07T04:14:38.922Z,23.47
2018-11-07T04:17:07.308Z,24.00
2018-11-07T04:19:35.779Z,20.60
2018-11-07T04:22:04.278Z,22.13
2018-11-07T04:24:32.730Z,16.80
2018-11-07T04:27:01.121Z,20.47
2018-11-07T04:29:29.563Z,22.53
2018-11-07T04:31:57.994Z,18.80
2018-11-07T04:34:26.386Z,20.90
2018-11-07T04:36:54.781Z,20.57
2018-11-07T04:39:23.189Z,24.87
2018-11-07T04:41:51.595Z,23.07
2018-11-07T04:44:19.988Z,22.40
2018-11-07T04:46:48.418Z,25.50
2018-11-07T04:49:16.800Z,24.73
2018-11-07T04:51:45.226Z,20.57
2018-11-07T04:54:13.633Z,22.60
2018-11-07T04:56:42.033Z,25.93
2018-11-07T04:59:10.446Z,23.33
2018-11-07T05:01:38.855Z,21.70
2018-11-07T05:04:07.438Z,23.27
2018-11-07T05:06:35.841Z,24.20
2018-11-07T05:09:04.505Z,25.30
2018-11-07T05:11:33.007Z,23.20
2018-11-07T05:14:01.537Z,21.27
2018-11-07T05:16:30.052Z,23.00
2018-11-07T05:18:58.575Z,20.37
2018-11-07T05:21:27.047Z,21.57
2018-11-07T05:23:55.474Z,26.10
2018-11-07T05:26:24.043Z,17.97
2018-11-07T05:28:52.429Z,20.43
2018-11-07T05:31:21.301Z,18.53
2018-11-07T05:33:49.707Z,25.63
2018-11-07T05:36:18.108Z,20.03
2018-11-07T05:38:46.477Z,22.97
2018-11-07T05:41:14.994Z,25.00
2018-11-07T05:43:43.353Z,21.67
2018-11-07T05:46:11.747Z,22.00
2018-11-07T05:48:40.702Z,18.67
2018-11-07T05:51:09.122Z,18.10
2018-11-07T05:53:37.540Z,20.50
2018-11-07T05:56:05.945Z,23.23
2018-11-07T05:58:34.404Z,20.00
2018-11-07T06:01:02.835Z,22.27
2018-11-07T06:03:31.902Z,23.73
2018-11-07T06:06:00.314Z,22.27
2018-11-07T06:08:28.715Z,18.80
2018-11-07T06:10:57.187Z,19.33
2018-11-07T06:13:25.606Z,17.43
2018-11-07T06:15:54.063Z,21.90
2018-11-07T06:18:22.430Z,19.10
2018-11-07T06:20:50.970Z,22.33
2018-11-07T06:23:19.365Z,24.47
2018-11-07T06:25:47.772Z,36.27
2018-11-07T06:28:16.276Z,44.13
2018-11-07T06:30:44.813Z,27.70
2018-11-07T06:33:13.315Z,22.90
2018-11-07T06:35:42.583Z,27.40
2018-11-07T06:38:11.018Z,28.03
2018-11-07T06:40:39.412Z,31.43
2018-11-07T06:43:07.799Z,27.87
2018-11-07T06:45:36.188Z,31.70
2018-11-07T06:48:04.658Z,28.33
2018-11-07T06:50:33.064Z,18.33
2018-11-07T06:53:01.453Z,24.33
2018-11-07T06:55:29.866Z,20.00
2018-11-07T06:57:58.270Z,17.37
2018-11-07T07:00:26.712Z,20.27
2018-11-07T07:02:55.125Z,23.27
2018-11-07T07:05:24.094Z,32.10
2018-11-07T07:07:52.642Z,25.67
2018-11-07T07:10:21.158Z,22.20
2018-11-07T07:12:49.611Z,15.63
2018-11-07T07:15:18.297Z,16.10
2018-11-07T07:17:46.975Z,17.00
2018-11-07T07:20:17.504Z,18.37
2018-11-07T07:22:46.624Z,17.70
2018-11-07T07:25:15.307Z,17.07
2018-11-07T07:27:45.648Z,16.07
2018-11-07T07:30:16.474Z,17.80
2018-11-07T07:32:45.579Z,20.90
2018-11-07T07:35:14.729Z,27.20
2018-11-07T07:37:43.149Z,24.57
2018-11-07T07:40:12.748Z,27.63
2018-11-07T07:42:42.072Z,22.63
2018-11-07T07:45:13.035Z,28.90
2018-11-07T07:47:42.323Z,27.37
2018-11-07T07:50:12.431Z,24.40
2018-11-07T07:52:41.489Z,24.13
2018-11-07T07:55:10.342Z,23.93
2018-11-07T07:57:40.171Z,21.10
2018-11-07T08:00:16.414Z,50.03
2018-11-07T08:02:46.473Z,49.87
2018-11-07T08:05:15.279Z,30.43
2018-11-07T08:07:44.879Z,23.60
2018-11-07T08:10:14.957Z,20.53
2018-11-07T08:12:44.124Z,22.70
2018-11-07T08:15:13.048Z,22.73
2018-11-07T08:17:44.387Z,20.20
2018-11-07T08:20:16.864Z,20.60
2018-11-07T08:22:46.408Z,19.07
2018-11-07T08:25:15.385Z,20.77
2018-11-07T08:27:44.102Z,22.30
2018-11-07T08:30:16.688Z,20.17
2018-11-07T08:32:45.668Z,19.43
2018-11-07T08:35:14.915Z,21.17
2018-11-07T08:37:44.294Z,24.23
2018-11-07T08:40:15.305Z,25.17
2018-11-07T08:42:44.109Z,21.93
2018-11-07T08:48:17.476Z,19.50
2018-11-07T08:50:47.835Z,19.43
2018-11-07T08:56:14.620Z,16.73
2018-11-07T08:58:43.066Z,19.33
2018-11-07T09:01:20.414Z,16.97
2018-11-07T09:04:01.806Z,19.50
2018-11-07T09:06:30.256Z,16.03
2018-11-07T09:12:02.316Z,16.33
2018-11-07T09:14:31.475Z,25.83
2018-11-07T09:17:00.099Z,15.87
2018-11-07T09:19:30.296Z,17.60
2018-11-07T09:22:06.196Z,17.37
2018-11-07T09:24:35.552Z,20.13
2018-11-07T09:29:52.343Z,24.23
2018-11-07T09:32:21.506Z,15.60
2018-11-07T09:34:50.617Z,18.27
2018-11-07T09:37:19.135Z,19.00
2018-11-07T09:39:47.925Z,15.97
2018-11-07T09:42:16.343Z,17.30
2018-11-07T09:44:44.969Z,14.10
2018-11-07T09:47:14.389Z,17.73
2018-11-07T09:49:42.836Z,17.33
2018-11-07T09:52:11.262Z,15.13
2018-11-07T09:54:39.706Z,15.20
2018-11-07T09:57:08.141Z,13.77
2018-11-07T09:59:36.636Z,15.77
2018-11-07T10:02:05.441Z,15.40
2018-11-07T10:04:33.863Z,17.83
2018-11-07T10:07:02.276Z,20.17
2018-11-07T10:09:30.668Z,17.80
2018-11-07T10:11:59.104Z,18.77
2018-11-07T10:14:27.514Z,19.00
2018-11-07T10:16:55.934Z,16.70
2018-11-07T10:19:24.341Z,15.70
2018-11-07T10:21:52.849Z,13.53
2018-11-07T10:24:21.302Z,16.30
2018-11-07T10:26:49.801Z,16.90
2018-11-07T10:29:18.524Z,14.70
2018-11-07T10:31:46.676Z,14.97
2018-11-07T10:34:15.117Z,14.43
2018-11-07T10:36:43.543Z,14.90
2018-11-07T10:39:12.089Z,14.93
2018-11-07T10:41:40.514Z,14.57
2018-11-07T10:44:09.216Z,14.67
2018-11-07T10:46:37.632Z,16.27
2018-11-07T10:49:06.404Z,17.93
2018-11-07T10:51:35.541Z,15.10
2018-11-07T10:54:04.235Z,17.50
2018-11-07T10:56:32.816Z,15.63
2018-11-07T10:59:01.514Z,12.23
2018-11-07T11:01:35.620Z,14.47
2018-11-07T11:04:04.272Z,15.83
2018-11-07T11:06:32.947Z,14.10
2018-11-07T11:09:01.459Z,16.17
2018-11-07T11:11:30.099Z,13.37
2018-11-07T11:13:58.588Z,12.60
2018-11-07T11:16:27.787Z,13.87
2018-11-07T11:18:56.466Z,14.60
2018-11-07T11:21:24.975Z,14.20
2018-11-07T11:23:53.464Z,14.80
2018-11-07T11:26:22.019Z,13.43
2018-11-07T11:28:50.591Z,13.00
2018-11-07T11:31:19.255Z,12.33
2018-11-07T11:33:48.004Z,23.63
2018-11-07T11:36:16.515Z,14.27
2018-11-07T11:38:45.058Z,11.57
2018-11-07T11:41:13.589Z,15.43
2018-11-07T11:43:41.985Z,13.30
2018-11-07T11:46:10.427Z,11.40
2018-11-07T11:48:38.823Z,12.87
2018-11-07T11:51:07.320Z,12.40
2018-11-07T11:53:36.438Z,10.83
2018-11-07T11:56:04.950Z,12.70
2018-11-07T11:58:33.349Z,10.63
2018-11-07T12:01:01.771Z,10.10
2018-11-07T12:03:30.760Z,13.83
2018-11-07T12:05:59.627Z,11.20
2018-11-07T12:08:29.143Z,12.80
2018-11-07T12:10:57.841Z,10.63
2018-11-07T12:39:12.171Z,7.90
2018-11-07T12:41:59.378Z,34.70
2018-11-07T20:14:38.528Z,8.60
2018-11-07T20:17:07.009Z,10.43
2018-11-07T20:19:35.433Z,12.47
2018-11-07T20:22:03.833Z,11.20
2018-11-07T20:24:32.271Z,10.13
2018-11-07T20:27:00.658Z,10.80
2018-11-07T20:29:29.099Z,12.43
2018-11-07T20:31:57.487Z,10.37
2018-11-07T20:34:26.024Z,14.63
2018-11-07T20:36:54.391Z,10.57
2018-11-07T20:39:22.819Z,9.70
2018-11-07T20:41:51.248Z,14.03
2018-11-07T20:44:19.646Z,8.97
2018-11-07T20:46:48.007Z,10.70
2018-11-07T20:49:16.411Z,8.97
2018-11-07T20:51:44.767Z,13.57
2018-11-07T20:54:13.245Z,16.47
2018-11-07T20:56:41.613Z,13.67
2018-11-07T20:59:10.058Z,13.90
2018-11-07T21:01:38.442Z,11.90
2018-11-07T21:04:06.843Z,11.73
2018-11-07T21:06:35.223Z,14.00
2018-11-07T21:09:07.492Z,12.60
2018-11-07T21:11:35.881Z,12.47
2018-11-07T21:14:04.497Z,8.60
2018-11-07T21:16:32.868Z,11.20
2018-11-07T21:19:01.622Z,7.50
2018-11-07T21:21:30.141Z,7.67
2018-11-07T21:23:58.539Z,11.93
2018-11-07T21:26:26.937Z,11.93
2018-11-07T21:28:55.339Z,12.60
2018-11-07T21:31:23.771Z,10.70
2018-11-07T21:33:52.169Z,9.23
2018-11-07T21:36:20.528Z,10.30
2018-11-07T21:38:48.943Z,9.87
2018-11-07T21:41:18.386Z,9.37
2018-11-07T21:43:46.820Z,9.03
2018-11-07T21:46:15.299Z,11.53
2018-11-07T21:48:43.666Z,9.00
2018-11-07T21:51:12.050Z,11.00
2018-11-07T21:53:40.405Z,10.40
2018-11-07T21:56:08.782Z,8.40
2018-11-07T21:58:37.163Z,9.63
2018-11-07T22:01:05.750Z,11.40
2018-11-07T22:03:34.108Z,12.07
2018-11-07T22:06:02.499Z,7.90
2018-11-07T22:08:31.014Z,11.97
2018-11-07T22:10:59.374Z,10.13
2018-11-07T22:13:27.743Z,11.10
2018-11-07T22:15:56.102Z,13.73
2018-11-07T22:18:24.456Z,10.67
2018-11-07T22:20:52.827Z,12.50
2018-11-07T22:23:21.196Z,9.07
2018-11-07T22:25:49.568Z,12.20
2018-11-07T22:28:17.942Z,15.40
2018-11-07T22:30:46.394Z,8.73
2018-11-07T22:33:14.739Z,10.93
2018-11-07T22:35:43.123Z,10.57
2018-11-07T22:38:11.493Z,10.80
2018-11-07T22:40:39.873Z,10.07
2018-11-07T22:43:08.226Z,10.90
2018-11-07T22:45:36.615Z,11.00
2018-11-07T22:48:05.050Z,8.47
2018-11-07T22:50:33.420Z,9.10
2018-11-07T22:53:01.776Z,7.03
2018-11-07T22:55:30.179Z,9.80
2018-11-07T22:57:58.531Z,7.00
2018-11-07T23:00:32.402Z,9.23
2018-11-07T23:03:00.748Z,9.43
2018-11-07T23:05:29.126Z,8.30
2018-11-07T23:07:57.497Z,9.00
2018-11-07T23:10:25.883Z,6.20
2018-11-07T23:12:54.264Z,9.50
2018-11-07T23:15:28.014Z,9.70
2018-11-07T23:17:56.405Z,5.67
2018-11-07T23:20:24.820Z,9.33
2018-11-07T23:22:53.192Z,6.07
2018-11-07T23:25:21.588Z,14.67
2018-11-07T23:27:49.965Z,8.80
2018-11-07T23:30:18.332Z,6.43
2018-11-07T23:32:46.687Z,9.27
2018-11-07T23:35:15.154Z,8.80
2018-11-07T23:37:43.533Z,8.90
2018-11-07T23:40:11.896Z,7.47
2018-11-07T23:42:40.247Z,5.73
2018-11-07T23:45:08.702Z,5.60
2018-11-07T23:47:37.170Z,6.30
2018-11-07T23:50:06.341Z,6.40
2018-11-07T23:52:40.026Z,7.00
2018-11-07T23:55:08.430Z,5.33
2018-11-07T23:57:36.800Z,6.27
